Aérodrome :











RETROUVEZ-NOUS SUR...

 
LOGIN :

S'inscrire | Disclaimer

   EN    FR    IT 

 









Légende :    VFR   VFR Marginal   IFR   IFR Intensif   IFR Très Intensif
Visi : 
Plafond : 
>= 8 km
>= 3000ft
5 à 8 km
1000 à 3000 ft
1500m à 5 km
500 à 1000 ft
800 à 1500m
200 à 500 ft
< 800m
< 200 ft
Symboles :   Orages  Brouillard  Fortes neiges  Fortes précipitations  Vent > 20 kt






- Altitude de l'aérodrome : 2205 ft


KVGT - North Las Vegas

DERNIER METAR :
  • 221153Z AUTO 30005KT 10SM CLR 05/03 A3015 RMK AO2 SLP231 70001 T00500033 10072 20044 53007

METARs EXPIRÉS :
  • 221053Z AUTO 33003KT 8SM CLR 06/04 A3014 RMK AO2 SLP227 T00560039
  • 220953Z AUTO 29005KT 8SM SCT043 06/04 A3013 RMK AO2 SLP225 T00610044

TAF KVGT
Valide du 22 à 12h jusqu'au 23 à 12h UTC


221120Z 2212/2312 VRB05KT P6SM FEW250
FM221600 12005KT P6SM FEW080
FM230300 33005KT P6SM SKC



MET'MAP, la Météo Aéronautique d'un coup d'oeil ! - Copyright ORBIFLY Décembre 2007 - Disclaimer

ORBIFLY MET'MAP TEAM :

Programmation & Développement : Alexandra Zaïnal
Conception & Développement : Baudouin d'Aumeries
Co-Programmation & Développement : Marc-Olivier Méhu
Soutien technique & logistique : Manuel Goepfert

Contact : metmap@orbifly.com




SOURCES & CREDITS :

   NOAA       Earth
Advisory